sensor_id;sensor_type;location;lat;lon;timestamp;temperature;humidity
23744;DHT22;12052;53.478;10.182;2022-08-07T00:00:56;13.60;99.90
23744;DHT22;12052;53.478;10.182;2022-08-07T00:03:22;13.50;99.90
23744;DHT22;12052;53.478;10.182;2022-08-07T00:05:49;13.50;99.90
23744;DHT22;12052;53.478;10.182;2022-08-07T00:08:17;13.50;99.90
23744;DHT22;12052;53.478;10.182;2022-08-07T00:10:43;13.50;99.90
23744;DHT22;12052;53.478;10.182;2022-08-07T00:13:09;13.50;99.90
23744;DHT22;12052;53.478;10.182;2022-08-07T00:15:35;13.40;99.90
23744;DHT22;12052;53.478;10.182;2022-08-07T00:18:00;13.40;99.90
23744;DHT22;12052;53.478;10.182;2022-08-07T00:20:26;13.40;99.90
23744;DHT22;12052;53.478;10.182;2022-08-07T00:22:51;13.40;99.90
23744;DHT22;12052;53.478;10.182;2022-08-07T00:25:17;13.40;99.90
23744;DHT22;12052;53.478;10.182;2022-08-07T00:27:43;13.30;99.90
23744;DHT22;12052;53.478;10.182;2022-08-07T00:30:09;13.20;99.90
23744;DHT22;12052;53.478;10.182;2022-08-07T00:32:35;13.20;99.90
23744;DHT22;12052;53.478;10.182;2022-08-07T00:35:00;13.20;99.90
23744;DHT22;12052;53.478;10.182;2022-08-07T00:37:26;13.20;99.90
23744;DHT22;12052;53.478;10.182;2022-08-07T00:39:52;13.30;99.90
23744;DHT22;12052;53.478;10.182;2022-08-07T00:42:20;13.20;99.90
23744;DHT22;12052;53.478;10.182;2022-08-07T00:44:46;13.20;99.90
23744;DHT22;12052;53.478;10.182;2022-08-07T00:47:12;13.20;99.90
23744;DHT22;12052;53.478;10.182;2022-08-07T00:49:37;13.20;99.90
23744;DHT22;12052;53.478;10.182;2022-08-07T00:52:08;13.20;99.90
23744;DHT22;12052;53.478;10.182;2022-08-07T00:54:33;13.10;99.90
23744;DHT22;12052;53.478;10.182;2022-08-07T00:56:59;13.10;99.90
23744;DHT22;12052;53.478;10.182;2022-08-07T00:59:25;13.10;99.90
23744;DHT22;12052;53.478;10.182;2022-08-07T01:01:51;13.00;99.90
23744;DHT22;12052;53.478;10.182;2022-08-07T01:04:17;13.10;99.90
23744;DHT22;12052;53.478;10.182;2022-08-07T01:06:43;13.00;99.90
23744;DHT22;12052;53.478;10.182;2022-08-07T01:09:09;13.00;99.90
23744;DHT22;12052;53.478;10.182;2022-08-07T01:11:35;13.00;99.90
23744;DHT22;12052;53.478;10.182;2022-08-07T01:14:02;12.90;99.90
23744;DHT22;12052;53.478;10.182;2022-08-07T01:16:28;12.90;99.90
23744;DHT22;12052;53.478;10.182;2022-08-07T01:18:54;12.80;99.90
23744;DHT22;12052;53.478;10.182;2022-08-07T01:21:20;12.80;99.90
23744;DHT22;12052;53.478;10.182;2022-08-07T01:23:49;12.80;99.90
23744;DHT22;12052;53.478;10.182;2022-08-07T01:26:17;12.80;99.90
23744;DHT22;12052;53.478;10.182;2022-08-07T01:28:46;12.80;99.90
23744;DHT22;12052;53.478;10.182;2022-08-07T01:31:14;12.80;99.90
23744;DHT22;12052;53.478;10.182;2022-08-07T01:33:41;12.80;99.90
23744;DHT22;12052;53.478;10.182;2022-08-07T01:36:07;12.70;99.90
23744;DHT22;12052;53.478;10.182;2022-08-07T01:38:35;12.70;99.90
23744;DHT22;12052;53.478;10.182;2022-08-07T01:41:02;12.70;99.90
23744;DHT22;12052;53.478;10.182;2022-08-07T01:43:30;12.60;99.90
23744;DHT22;12052;53.478;10.182;2022-08-07T01:45:56;12.60;99.90
23744;DHT22;12052;53.478;10.182;2022-08-07T01:48:22;12.50;99.90
23744;DHT22;12052;53.478;10.182;2022-08-07T01:50:53;12.50;99.90
23744;DHT22;12052;53.478;10.182;2022-08-07T01:53:21;12.50;99.90
23744;DHT22;12052;53.478;10.182;2022-08-07T01:55:54;12.50;99.90
23744;DHT22;12052;53.478;10.182;2022-08-07T01:58:21;12.50;99.90
23744;DHT22;12052;53.478;10.182;2022-08-07T02:00:52;12.50;99.90
23744;DHT22;12052;53.478;10.182;2022-08-07T02:03:21;12.50;99.90
23744;DHT22;12052;53.478;10.182;2022-08-07T02:08:21;12.40;99.90
23744;DHT22;12052;53.478;10.182;2022-08-07T02:10:48;12.30;99.90
23744;DHT22;12052;53.478;10.182;2022-08-07T02:13:19;12.30;99.90
23744;DHT22;12052;53.478;10.182;2022-08-07T02:15:46;12.30;99.90
23744;DHT22;12052;53.478;10.182;2022-08-07T02:18:14;12.30;99.90
23744;DHT22;12052;53.478;10.182;2022-08-07T02:20:41;12.30;99.90
23744;DHT22;12052;53.478;10.182;2022-08-07T02:23:08;12.30;99.90
23744;DHT22;12052;53.478;10.182;2022-08-07T02:25:36;12.20;99.90
23744;DHT22;12052;53.478;10.182;2022-08-07T02:28:04;12.20;99.90
23744;DHT22;12052;53.478;10.182;2022-08-07T02:30:32;12.20;99.90
23744;DHT22;12052;53.478;10.182;2022-08-07T02:32:58;12.20;99.90
23744;DHT22;12052;53.478;10.182;2022-08-07T02:35:25;12.10;99.90
23744;DHT22;12052;53.478;10.182;2022-08-07T02:37:52;12.10;99.90
23744;DHT22;12052;53.478;10.182;2022-08-07T02:40:18;12.10;99.90
23744;DHT22;12052;53.478;10.182;2022-08-07T02:42:44;12.10;99.90
23744;DHT22;12052;53.478;10.182;2022-08-07T02:45:12;12.10;99.90
23744;DHT22;12052;53.478;10.182;2022-08-07T02:47:38;12.10;99.90
23744;DHT22;12052;53.478;10.182;2022-08-07T02:50:05;12.10;99.90
23744;DHT22;12052;53.478;10.182;2022-08-07T02:55:08;12.00;99.90
23744;DHT22;12052;53.478;10.182;2022-08-07T02:57:35;12.00;99.90
23744;DHT22;12052;53.478;10.182;2022-08-07T03:00:03;11.90;99.90
23744;DHT22;12052;53.478;10.182;2022-08-07T03:02:29;11.90;99.90
23744;DHT22;12052;53.478;10.182;2022-08-07T03:04:57;11.90;99.90
23744;DHT22;12052;53.478;10.182;2022-08-07T03:07:24;11.90;99.90
23744;DHT22;12052;53.478;10.182;2022-08-07T03:09:51;11.80;99.90
23744;DHT22;12052;53.478;10.182;2022-08-07T03:12:17;11.80;99.90
23744;DHT22;12052;53.478;10.182;2022-08-07T03:14:43;11.80;99.90
23744;DHT22;12052;53.478;10.182;2022-08-07T03:17:09;11.80;99.90
23744;DHT22;12052;53.478;10.182;2022-08-07T03:19:35;11.80;99.90
23744;DHT22;12052;53.478;10.182;2022-08-07T03:22:03;11.80;99.90
23744;DHT22;12052;53.478;10.182;2022-08-07T03:24:29;11.80;99.90
23744;DHT22;12052;53.478;10.182;2022-08-07T03:26:59;11.80;99.90
23744;DHT22;12052;53.478;10.182;2022-08-07T03:29:28;11.70;99.90
23744;DHT22;12052;53.478;10.182;2022-08-07T03:31:56;11.70;99.90
23744;DHT22;12052;53.478;10.182;2022-08-07T03:34:23;11.70;99.90
23744;DHT22;12052;53.478;10.182;2022-08-07T03:36:53;11.60;99.90
23744;DHT22;12052;53.478;10.182;2022-08-07T03:39:19;11.60;99.90
23744;DHT22;12052;53.478;10.182;2022-08-07T03:41:46;11.70;99.90
23744;DHT22;12052;53.478;10.182;2022-08-07T03:44:12;11.60;99.90
23744;DHT22;12052;53.478;10.182;2022-08-07T03:46:38;11.60;99.90
23744;DHT22;12052;53.478;10.182;2022-08-07T03:49:07;11.60;99.90
23744;DHT22;12052;53.478;10.182;2022-08-07T03:51:33;11.60;99.90
23744;DHT22;12052;53.478;10.182;2022-08-07T03:54:00;11.50;99.90
23744;DHT22;12052;53.478;10.182;2022-08-07T03:56:26;11.50;99.90
23744;DHT22;12052;53.478;10.182;2022-08-07T03:58:54;11.50;99.90
23744;DHT22;12052;53.478;10.182;2022-08-07T04:01:20;11.50;99.90
23744;DHT22;12052;53.478;10.182;2022-08-07T04:03:48;11.50;99.90
23744;DHT22;12052;53.478;10.182;2022-08-07T04:06:14;11.50;99.90
23744;DHT22;12052;53.478;10.182;2022-08-07T04:08:40;11.50;99.90
23744;DHT22;12052;53.478;10.182;2022-08-07T04:11:07;11.50;99.90
23744;DHT22;12052;53.478;10.182;2022-08-07T04:13:35;11.50;99.90
23744;DHT22;12052;53.478;10.182;2022-08-07T04:16:00;11.40;99.90
23744;DHT22;12052;53.478;10.182;2022-08-07T04:18:26;11.40;99.90
23744;DHT22;12052;53.478;10.182;2022-08-07T04:20:52;11.40;99.90
23744;DHT22;12052;53.478;10.182;2022-08-07T04:23:18;11.40;99.90
23744;DHT22;12052;53.478;10.182;2022-08-07T04:25:44;11.40;99.90
23744;DHT22;12052;53.478;10.182;2022-08-07T04:28:10;11.40;99.90
23744;DHT22;12052;53.478;10.182;2022-08-07T04:30:36;11.40;99.90
23744;DHT22;12052;53.478;10.182;2022-08-07T04:33:07;11.30;99.90
23744;DHT22;12052;53.478;10.182;2022-08-07T04:35:37;11.40;99.90
23744;DHT22;12052;53.478;10.182;2022-08-07T04:38:07;11.30;99.90
23744;DHT22;12052;53.478;10.182;2022-08-07T04:40:34;11.40;99.90
23744;DHT22;12052;53.478;10.182;2022-08-07T04:43:00;11.30;99.90
23744;DHT22;12052;53.478;10.182;2022-08-07T04:45:36;11.40;99.90
23744;DHT22;12052;53.478;10.182;2022-08-07T04:48:07;11.40;99.90
23744;DHT22;12052;53.478;10.182;2022-08-07T04:50:44;11.40;99.90
23744;DHT22;12052;53.478;10.182;2022-08-07T04:53:17;11.40;99.90
23744;DHT22;12052;53.478;10.182;2022-08-07T04:56:01;11.40;99.90
23744;DHT22;12052;53.478;10.182;2022-08-07T04:58:51;11.50;99.90
23744;DHT22;12052;53.478;10.182;2022-08-07T05:02:09;11.50;99.90
23744;DHT22;12052;53.478;10.182;2022-08-07T05:04:20;11.50;99.90
23744;DHT22;12052;53.478;10.182;2022-08-07T05:12:27;11.50;99.90
23744;DHT22;12052;53.478;10.182;2022-08-07T05:14:57;11.60;99.90
23744;DHT22;12052;53.478;10.182;2022-08-07T05:17:27;11.60;99.90
23744;DHT22;12052;53.478;10.182;2022-08-07T05:19:53;11.60;99.90
23744;DHT22;12052;53.478;10.182;2022-08-07T05:22:20;11.60;99.90
23744;DHT22;12052;53.478;10.182;2022-08-07T05:24:48;11.70;99.90
23744;DHT22;12052;53.478;10.182;2022-08-07T05:27:16;11.70;99.90
23744;DHT22;12052;53.478;10.182;2022-08-07T05:29:44;11.80;99.90
23744;DHT22;12052;53.478;10.182;2022-08-07T05:32:10;11.80;99.90
23744;DHT22;12052;53.478;10.182;2022-08-07T05:34:39;11.90;99.90
23744;DHT22;12052;53.478;10.182;2022-08-07T05:37:05;11.90;99.90
23744;DHT22;12052;53.478;10.182;2022-08-07T05:39:34;12.00;99.90
23744;DHT22;12052;53.478;10.182;2022-08-07T05:42:00;12.10;99.90
23744;DHT22;12052;53.478;10.182;2022-08-07T05:44:27;12.20;99.90
23744;DHT22;12052;53.478;10.182;2022-08-07T05:46:54;12.30;99.90
23744;DHT22;12052;53.478;10.182;2022-08-07T05:49:21;12.50;99.90
23744;DHT22;12052;53.478;10.182;2022-08-07T05:51:47;12.60;99.90
23744;DHT22;12052;53.478;10.182;2022-08-07T05:54:15;12.80;99.90
23744;DHT22;12052;53.478;10.182;2022-08-07T05:56:41;12.90;99.90
23744;DHT22;12052;53.478;10.182;2022-08-07T05:59:12;13.10;99.90
23744;DHT22;12052;53.478;10.182;2022-08-07T06:01:39;13.10;99.90
23744;DHT22;12052;53.478;10.182;2022-08-07T06:04:07;13.30;99.90
23744;DHT22;12052;53.478;10.182;2022-08-07T06:06:33;13.50;99.90
23744;DHT22;12052;53.478;10.182;2022-08-07T06:09:00;13.50;99.90
23744;DHT22;12052;53.478;10.182;2022-08-07T06:11:26;13.80;99.90
23744;DHT22;12052;53.478;10.182;2022-08-07T06:13:52;13.90;99.90
23744;DHT22;12052;53.478;10.182;2022-08-07T06:16:21;14.00;99.90
23744;DHT22;12052;53.478;10.182;2022-08-07T06:18:47;14.10;99.90
23744;DHT22;12052;53.478;10.182;2022-08-07T06:21:14;14.30;99.90
23744;DHT22;12052;53.478;10.182;2022-08-07T06:23:40;14.40;99.90
23744;DHT22;12052;53.478;10.182;2022-08-07T06:26:06;14.50;99.90
23744;DHT22;12052;53.478;10.182;2022-08-07T06:28:50;14.50;99.90
23744;DHT22;12052;53.478;10.182;2022-08-07T06:31:16;14.60;99.90
23744;DHT22;12052;53.478;10.182;2022-08-07T06:33:43;14.70;99.90
23744;DHT22;12052;53.478;10.182;2022-08-07T06:36:09;14.70;99.90
23744;DHT22;12052;53.478;10.182;2022-08-07T06:38:34;14.80;99.90
23744;DHT22;12052;53.478;10.182;2022-08-07T06:41:01;14.80;99.90
23744;DHT22;12052;53.478;10.182;2022-08-07T06:43:30;14.90;99.90
23744;DHT22;12052;53.478;10.182;2022-08-07T06:46:01;15.00;99.90
23744;DHT22;12052;53.478;10.182;2022-08-07T06:48:27;15.10;99.90
23744;DHT22;12052;53.478;10.182;2022-08-07T06:50:54;15.10;99.90
23744;DHT22;12052;53.478;10.182;2022-08-07T06:53:22;15.30;99.90
23744;DHT22;12052;53.478;10.182;2022-08-07T06:55:49;15.40;99.90
23744;DHT22;12052;53.478;10.182;2022-08-07T06:58:15;15.50;99.90
23744;DHT22;12052;53.478;10.182;2022-08-07T07:00:43;15.60;99.90
23744;DHT22;12052;53.478;10.182;2022-08-07T07:03:11;15.70;99.90
23744;DHT22;12052;53.478;10.182;2022-08-07T07:05:38;15.80;99.90
23744;DHT22;12052;53.478;10.182;2022-08-07T07:08:04;15.80;99.90
23744;DHT22;12052;53.478;10.182;2022-08-07T07:10:31;15.90;99.90
23744;DHT22;12052;53.478;10.182;2022-08-07T07:13:15;16.00;99.90
23744;DHT22;12052;53.478;10.182;2022-08-07T07:15:47;16.10;99.90
23744;DHT22;12052;53.478;10.182;2022-08-07T07:18:22;16.20;99.90
23744;DHT22;12052;53.478;10.182;2022-08-07T07:20:56;16.40;99.90
23744;DHT22;12052;53.478;10.182;2022-08-07T07:23:24;16.50;99.90
23744;DHT22;12052;53.478;10.182;2022-08-07T07:25:53;16.50;99.90
23744;DHT22;12052;53.478;10.182;2022-08-07T07:31:26;16.70;99.90
23744;DHT22;12052;53.478;10.182;2022-08-07T07:33:57;16.80;99.90
23744;DHT22;12052;53.478;10.182;2022-08-07T07:36:24;16.90;99.90
23744;DHT22;12052;53.478;10.182;2022-08-07T07:38:50;17.00;99.90
23744;DHT22;12052;53.478;10.182;2022-08-07T07:41:20;17.10;99.90
23744;DHT22;12052;53.478;10.182;2022-08-07T07:43:47;17.20;99.90
23744;DHT22;12052;53.478;10.182;2022-08-07T07:46:14;17.40;99.90
23744;DHT22;12052;53.478;10.182;2022-08-07T07:48:41;17.50;99.90
23744;DHT22;12052;53.478;10.182;2022-08-07T07:51:08;17.70;99.90
23744;DHT22;12052;53.478;10.182;2022-08-07T07:53:41;17.80;99.90
23744;DHT22;12052;53.478;10.182;2022-08-07T07:56:08;18.00;99.90
23744;DHT22;12052;53.478;10.182;2022-08-07T07:58:36;17.90;99.90
23744;DHT22;12052;53.478;10.182;2022-08-07T08:01:03;18.00;99.90
23744;DHT22;12052;53.478;10.182;2022-08-07T08:03:30;18.10;99.90
23744;DHT22;12052;53.478;10.182;2022-08-07T08:05:58;18.20;99.90
23744;DHT22;12052;53.478;10.182;2022-08-07T08:08:30;18.50;99.90
23744;DHT22;12052;53.478;10.182;2022-08-07T08:10:58;18.60;99.90
23744;DHT22;12052;53.478;10.182;2022-08-07T08:13:25;18.60;99.90
23744;DHT22;12052;53.478;10.182;2022-08-07T08:15:52;18.60;99.90
23744;DHT22;12052;53.478;10.182;2022-08-07T08:18:18;18.80;99.90
23744;DHT22;12052;53.478;10.182;2022-08-07T08:20:44;18.80;99.90
23744;DHT22;12052;53.478;10.182;2022-08-07T08:23:18;18.80;99.90
23744;DHT22;12052;53.478;10.182;2022-08-07T08:26:28;18.80;99.90
23744;DHT22;12052;53.478;10.182;2022-08-07T08:29:14;19.00;99.90
23744;DHT22;12052;53.478;10.182;2022-08-07T08:31:41;19.20;99.90
23744;DHT22;12052;53.478;10.182;2022-08-07T08:34:08;19.40;99.90
23744;DHT22;12052;53.478;10.182;2022-08-07T08:36:36;19.70;99.90
23744;DHT22;12052;53.478;10.182;2022-08-07T08:39:04;19.90;99.90
23744;DHT22;12052;53.478;10.182;2022-08-07T08:41:47;20.10;99.90
23744;DHT22;12052;53.478;10.182;2022-08-07T08:47:07;20.20;99.90
23744;DHT22;12052;53.478;10.182;2022-08-07T08:49:46;20.20;99.90
23744;DHT22;12052;53.478;10.182;2022-08-07T08:52:19;20.00;99.90
23744;DHT22;12052;53.478;10.182;2022-08-07T08:54:54;20.30;99.90
23744;DHT22;12052;53.478;10.182;2022-08-07T09:00:18;20.60;99.90
23744;DHT22;12052;53.478;10.182;2022-08-07T09:22:52;20.80;99.90
23744;DHT22;12052;53.478;10.182;2022-08-07T09:25:44;21.00;99.90
23744;DHT22;12052;53.478;10.182;2022-08-07T09:28:22;21.30;99.90
23744;DHT22;12052;53.478;10.182;2022-08-07T09:31:15;21.40;99.90
23744;DHT22;12052;53.478;10.182;2022-08-07T09:33:51;21.60;99.90
23744;DHT22;12052;53.478;10.182;2022-08-07T09:39:21;21.40;99.90
23744;DHT22;12052;53.478;10.182;2022-08-07T09:44:43;22.00;99.90
23744;DHT22;12052;53.478;10.182;2022-08-07T09:50:19;21.90;99.90
23744;DHT22;12052;53.478;10.182;2022-08-07T09:52:59;21.80;99.90
23744;DHT22;12052;53.478;10.182;2022-08-07T09:55:31;21.40;99.90
23744;DHT22;12052;53.478;10.182;2022-08-07T10:03:56;21.00;99.90
23744;DHT22;12052;53.478;10.182;2022-08-07T10:37:18;22.10;99.90
23744;DHT22;12052;53.478;10.182;2022-08-07T10:45:25;22.00;99.90
23744;DHT22;12052;53.478;10.182;2022-08-07T10:48:03;21.60;99.90
23744;DHT22;12052;53.478;10.182;2022-08-07T10:50:55;21.30;99.90
23744;DHT22;12052;53.478;10.182;2022-08-07T10:53:28;21.20;99.90
23744;DHT22;12052;53.478;10.182;2022-08-07T10:59:25;21.10;99.90
23744;DHT22;12052;53.478;10.182;2022-08-07T11:02:05;21.10;99.90
23744;DHT22;12052;53.478;10.182;2022-08-07T11:07:35;21.40;99.90
23744;DHT22;12052;53.478;10.182;2022-08-07T11:10:03;21.70;99.90
23744;DHT22;12052;53.478;10.182;2022-08-07T11:12:43;21.80;99.90
23744;DHT22;12052;53.478;10.182;2022-08-07T11:15:19;21.80;99.90
23744;DHT22;12052;53.478;10.182;2022-08-07T11:17:57;21.80;99.90
23744;DHT22;12052;53.478;10.182;2022-08-07T11:23:35;22.00;99.90
23744;DHT22;12052;53.478;10.182;2022-08-07T11:26:25;22.10;99.90
23744;DHT22;12052;53.478;10.182;2022-08-07T11:29:27;22.20;99.90
23744;DHT22;12052;53.478;10.182;2022-08-07T11:35:00;21.70;99.90
23744;DHT22;12052;53.478;10.182;2022-08-07T11:43:12;21.20;99.90
23744;DHT22;12052;53.478;10.182;2022-08-07T11:46:04;21.30;99.90
23744;DHT22;12052;53.478;10.182;2022-08-07T11:54:32;21.80;99.90
23744;DHT22;12052;53.478;10.182;2022-08-07T11:57:39;22.10;99.90
23744;DHT22;12052;53.478;10.182;2022-08-07T12:00:10;22.10;99.90
23744;DHT22;12052;53.478;10.182;2022-08-07T12:05:55;21.80;99.90
23744;DHT22;12052;53.478;10.182;2022-08-07T12:08:49;21.60;99.90
23744;DHT22;12052;53.478;10.182;2022-08-07T12:11:22;21.50;99.90
23744;DHT22;12052;53.478;10.182;2022-08-07T12:13:52;21.50;99.90
23744;DHT22;12052;53.478;10.182;2022-08-07T12:16:27;21.70;99.90
23744;DHT22;12052;53.478;10.182;2022-08-07T12:21:26;22.20;99.90
23744;DHT22;12052;53.478;10.182;2022-08-07T12:24:01;22.30;99.90
23744;DHT22;12052;53.478;10.182;2022-08-07T12:26:37;22.40;99.90
23744;DHT22;12052;53.478;10.182;2022-08-07T12:29:14;22.40;99.90
23744;DHT22;12052;53.478;10.182;2022-08-07T12:34:19;22.30;99.90
23744;DHT22;12052;53.478;10.182;2022-08-07T12:36:47;22.30;99.90
23744;DHT22;12052;53.478;10.182;2022-08-07T12:39:14;22.20;99.90
23744;DHT22;12052;53.478;10.182;2022-08-07T12:41:41;22.10;99.90
23744;DHT22;12052;53.478;10.182;2022-08-07T12:44:09;22.00;99.90
23744;DHT22;12052;53.478;10.182;2022-08-07T12:52:10;22.10;99.90
23744;DHT22;12052;53.478;10.182;2022-08-07T12:57:09;22.40;99.90
23744;DHT22;12052;53.478;10.182;2022-08-07T12:59:37;22.50;99.90
23744;DHT22;12052;53.478;10.182;2022-08-07T13:10:40;22.00;99.90
23744;DHT22;12052;53.478;10.182;2022-08-07T13:18:48;22.20;99.90
23744;DHT22;12052;53.478;10.182;2022-08-07T13:21:21;22.40;99.90
23744;DHT22;12052;53.478;10.182;2022-08-07T13:24:02;22.40;99.90
23744;DHT22;12052;53.478;10.182;2022-08-07T13:26:55;22.50;99.90
23744;DHT22;12052;53.478;10.182;2022-08-07T13:30:00;22.60;99.90
23744;DHT22;12052;53.478;10.182;2022-08-07T13:32:52;22.70;99.90
23744;DHT22;12052;53.478;10.182;2022-08-07T13:38:16;22.60;99.90
23744;DHT22;12052;53.478;10.182;2022-08-07T13:43:48;22.70;99.90
23744;DHT22;12052;53.478;10.182;2022-08-07T13:46:15;22.80;99.90
23744;DHT22;12052;53.478;10.182;2022-08-07T13:48:50;22.80;99.90
23744;DHT22;12052;53.478;10.182;2022-08-07T13:51:17;22.80;99.90
23744;DHT22;12052;53.478;10.182;2022-08-07T13:53:50;22.70;99.90
23744;DHT22;12052;53.478;10.182;2022-08-07T13:56:20;22.80;99.90
23744;DHT22;12052;53.478;10.182;2022-08-07T13:58:47;22.80;99.90
23744;DHT22;12052;53.478;10.182;2022-08-07T14:01:33;22.80;99.90
23744;DHT22;12052;53.478;10.182;2022-08-07T14:04:14;22.90;99.90
23744;DHT22;12052;53.478;10.182;2022-08-07T14:06:43;23.00;99.90
23744;DHT22;12052;53.478;10.182;2022-08-07T14:09:24;23.00;99.90
23744;DHT22;12052;53.478;10.182;2022-08-07T14:11:55;23.00;99.90
23744;DHT22;12052;53.478;10.182;2022-08-07T14:14:28;22.80;99.90
23744;DHT22;12052;53.478;10.182;2022-08-07T14:16:57;22.90;99.90
23744;DHT22;12052;53.478;10.182;2022-08-07T14:19:49;22.90;99.90
23744;DHT22;12052;53.478;10.182;2022-08-07T14:22:21;22.70;99.90
23744;DHT22;12052;53.478;10.182;2022-08-07T14:24:51;22.80;99.90
23744;DHT22;12052;53.478;10.182;2022-08-07T14:27:26;22.90;99.90
23744;DHT22;12052;53.478;10.182;2022-08-07T14:29:57;23.00;99.90
23744;DHT22;12052;53.478;10.182;2022-08-07T14:32:26;23.00;99.90
23744;DHT22;12052;53.478;10.182;2022-08-07T14:34:54;23.10;99.90
23744;DHT22;12052;53.478;10.182;2022-08-07T14:37:20;23.10;99.90
23744;DHT22;12052;53.478;10.182;2022-08-07T14:39:47;23.10;99.90
23744;DHT22;12052;53.478;10.182;2022-08-07T14:42:14;23.10;99.90
23744;DHT22;12052;53.478;10.182;2022-08-07T14:44:49;23.00;99.90
23744;DHT22;12052;53.478;10.182;2022-08-07T14:47:17;23.00;99.90
23744;DHT22;12052;53.478;10.182;2022-08-07T14:49:44;23.00;99.90
23744;DHT22;12052;53.478;10.182;2022-08-07T14:52:10;22.90;99.90
23744;DHT22;12052;53.478;10.182;2022-08-07T14:54:37;23.00;99.90
23744;DHT22;12052;53.478;10.182;2022-08-07T14:57:06;23.10;99.90
23744;DHT22;12052;53.478;10.182;2022-08-07T14:59:35;23.20;99.90
23744;DHT22;12052;53.478;10.182;2022-08-07T15:02:16;23.20;99.90
23744;DHT22;12052;53.478;10.182;2022-08-07T15:04:43;23.30;99.90
23744;DHT22;12052;53.478;10.182;2022-08-07T15:07:15;23.30;99.90
23744;DHT22;12052;53.478;10.182;2022-08-07T15:09:42;23.20;99.90
23744;DHT22;12052;53.478;10.182;2022-08-07T15:12:21;23.20;99.90
23744;DHT22;12052;53.478;10.182;2022-08-07T15:14:54;23.10;99.90
23744;DHT22;12052;53.478;10.182;2022-08-07T15:17:27;23.10;99.90
23744;DHT22;12052;53.478;10.182;2022-08-07T15:20:08;23.20;99.90
23744;DHT22;12052;53.478;10.182;2022-08-07T15:22:49;23.20;99.90
23744;DHT22;12052;53.478;10.182;2022-08-07T15:25:22;23.30;99.90
23744;DHT22;12052;53.478;10.182;2022-08-07T15:27:56;23.30;99.90
23744;DHT22;12052;53.478;10.182;2022-08-07T15:30:24;23.20;99.90
23744;DHT22;12052;53.478;10.182;2022-08-07T15:32:51;23.20;99.90
23744;DHT22;12052;53.478;10.182;2022-08-07T15:35:20;23.10;99.90
23744;DHT22;12052;53.478;10.182;2022-08-07T15:37:54;23.10;99.90
23744;DHT22;12052;53.478;10.182;2022-08-07T15:40:22;23.10;99.90
23744;DHT22;12052;53.478;10.182;2022-08-07T15:42:55;23.00;99.90
23744;DHT22;12052;53.478;10.182;2022-08-07T15:50:45;22.90;99.90
23744;DHT22;12052;53.478;10.182;2022-08-07T15:53:16;22.90;99.90
23744;DHT22;12052;53.478;10.182;2022-08-07T15:55:49;23.00;99.90
23744;DHT22;12052;53.478;10.182;2022-08-07T15:58:17;23.00;99.90
23744;DHT22;12052;53.478;10.182;2022-08-07T16:00:46;23.00;99.90
23744;DHT22;12052;53.478;10.182;2022-08-07T16:03:17;22.90;99.90
23744;DHT22;12052;53.478;10.182;2022-08-07T16:05:45;22.90;99.90
23744;DHT22;12052;53.478;10.182;2022-08-07T16:08:16;23.00;99.90
23744;DHT22;12052;53.478;10.182;2022-08-07T16:10:46;23.00;99.90
23744;DHT22;12052;53.478;10.182;2022-08-07T16:19:29;22.70;99.90
23744;DHT22;12052;53.478;10.182;2022-08-07T16:30:29;22.60;99.90
23744;DHT22;12052;53.478;10.182;2022-08-07T16:33:11;22.60;99.90
23744;DHT22;12052;53.478;10.182;2022-08-07T16:36:19;22.50;99.90
23744;DHT22;12052;53.478;10.182;2022-08-07T16:47:22;22.60;99.90
23744;DHT22;12052;53.478;10.182;2022-08-07T16:55:55;22.50;99.90
23744;DHT22;12052;53.478;10.182;2022-08-07T17:04:52;22.40;99.90
23744;DHT22;12052;53.478;10.182;2022-08-07T17:09:32;22.30;99.90
23744;DHT22;12052;53.478;10.182;2022-08-07T17:14:58;22.20;99.90
23744;DHT22;12052;53.478;10.182;2022-08-07T17:17:35;22.20;99.90
23744;DHT22;12052;53.478;10.182;2022-08-07T17:20:29;22.20;99.90
23744;DHT22;12052;53.478;10.182;2022-08-07T17:26:13;22.10;99.90
23744;DHT22;12052;53.478;10.182;2022-08-07T17:31:25;22.10;99.90
23744;DHT22;12052;53.478;10.182;2022-08-07T17:34:27;22.00;99.90
23744;DHT22;12052;53.478;10.182;2022-08-07T17:36:56;22.00;99.90
23744;DHT22;12052;53.478;10.182;2022-08-07T17:39:33;22.00;99.90
23744;DHT22;12052;53.478;10.182;2022-08-07T17:42:04;21.90;99.90
23744;DHT22;12052;53.478;10.182;2022-08-07T17:44:47;21.90;99.90
23744;DHT22;12052;53.478;10.182;2022-08-07T17:50:05;21.80;99.90
23744;DHT22;12052;53.478;10.182;2022-08-07T17:52:46;21.70;99.90
23744;DHT22;12052;53.478;10.182;2022-08-07T17:55:16;21.70;99.90
23744;DHT22;12052;53.478;10.182;2022-08-07T17:57:57;21.60;99.90
23744;DHT22;12052;53.478;10.182;2022-08-07T18:00:26;21.50;99.90
23744;DHT22;12052;53.478;10.182;2022-08-07T18:03:02;21.50;99.90
23744;DHT22;12052;53.478;10.182;2022-08-07T18:08:24;21.30;99.90
23744;DHT22;12052;53.478;10.182;2022-08-07T18:13:39;21.20;99.90
23744;DHT22;12052;53.478;10.182;2022-08-07T18:16:11;21.20;99.90
23744;DHT22;12052;53.478;10.182;2022-08-07T18:18:47;21.10;99.90
23744;DHT22;12052;53.478;10.182;2022-08-07T18:21:20;21.10;99.90
23744;DHT22;12052;53.478;10.182;2022-08-07T18:26:19;21.00;99.90
23744;DHT22;12052;53.478;10.182;2022-08-07T18:32:07;20.90;99.90
23744;DHT22;12052;53.478;10.182;2022-08-07T18:34:46;20.80;99.90
23744;DHT22;12052;53.478;10.182;2022-08-07T18:37:28;20.80;99.90
23744;DHT22;12052;53.478;10.182;2022-08-07T18:40:23;20.70;99.90
23744;DHT22;12052;53.478;10.182;2022-08-07T18:43:04;20.60;99.90
23744;DHT22;12052;53.478;10.182;2022-08-07T18:45:56;20.60;99.90
23744;DHT22;12052;53.478;10.182;2022-08-07T18:48:30;20.50;99.90
23744;DHT22;12052;53.478;10.182;2022-08-07T18:51:12;20.50;99.90
23744;DHT22;12052;53.478;10.182;2022-08-07T18:57:14;20.30;99.90
23744;DHT22;12052;53.478;10.182;2022-08-07T19:00:03;20.30;99.90
23744;DHT22;12052;53.478;10.182;2022-08-07T19:05:21;20.30;99.90
23744;DHT22;12052;53.478;10.182;2022-08-07T19:10:31;20.20;99.90
23744;DHT22;12052;53.478;10.182;2022-08-07T19:13:02;20.10;99.90
23744;DHT22;12052;53.478;10.182;2022-08-07T19:21:47;19.90;99.90
23744;DHT22;12052;53.478;10.182;2022-08-07T19:24:23;19.80;99.90
23744;DHT22;12052;53.478;10.182;2022-08-07T19:26:52;19.70;99.90
23744;DHT22;12052;53.478;10.182;2022-08-07T19:29:22;19.70;99.90
23744;DHT22;12052;53.478;10.182;2022-08-07T19:31:52;19.70;99.90